createdAt,value
2018-07-20T00:00:34.444Z,2.30
2018-07-20T00:03:03.334Z,1.73
2018-07-20T00:05:32.149Z,2.50
2018-07-20T00:08:01.321Z,2.00
2018-07-20T00:10:30.333Z,2.30
2018-07-20T00:12:59.152Z,1.80
2018-07-20T00:15:28.021Z,2.27
2018-07-20T00:17:56.823Z,2.17
2018-07-20T00:20:25.718Z,2.30
2018-07-20T00:22:54.550Z,2.63
2018-07-20T00:25:23.347Z,3.10
2018-07-20T00:27:52.210Z,2.63
2018-07-20T00:30:21.048Z,2.23
2018-07-20T00:32:49.856Z,2.00
2018-07-20T00:35:19.035Z,2.27
2018-07-20T00:37:47.871Z,2.00
2018-07-20T00:40:16.931Z,2.13
2018-07-20T00:42:45.787Z,2.00
2018-07-20T00:45:14.617Z,2.87
2018-07-20T00:47:44.402Z,2.07
2018-07-20T00:50:13.296Z,2.20
2018-07-20T00:52:42.195Z,2.33
2018-07-20T00:55:11.017Z,1.97
2018-07-20T00:57:39.844Z,2.40
2018-07-20T01:00:08.643Z,2.03
2018-07-20T01:02:37.459Z,2.60
2018-07-20T01:05:06.406Z,1.70
2018-07-20T01:07:35.275Z,1.80
2018-07-20T01:10:04.116Z,2.70
2018-07-20T01:12:32.952Z,1.80
2018-07-20T01:15:01.770Z,1.60
2018-07-20T01:17:30.597Z,1.83
2018-07-20T01:19:59.423Z,2.10
2018-07-20T01:22:28.262Z,2.27
2018-07-20T01:24:57.102Z,1.73
2018-07-20T01:27:25.931Z,1.90
2018-07-20T01:29:54.744Z,1.67
2018-07-20T01:32:23.748Z,1.70
2018-07-20T01:34:52.666Z,1.90
2018-07-20T01:37:21.489Z,2.17
2018-07-20T01:39:50.318Z,2.53
2018-07-20T01:42:19.154Z,2.17
2018-07-20T01:44:47.984Z,1.47
2018-07-20T01:47:16.999Z,1.60
2018-07-20T01:49:45.823Z,1.57
2018-07-20T01:52:14.630Z,1.60
2018-07-20T01:54:43.449Z,2.67
2018-07-20T01:57:12.235Z,2.70
2018-07-20T01:59:41.072Z,1.47
2018-07-20T02:02:09.931Z,1.80
2018-07-20T02:04:38.760Z,1.87
2018-07-20T02:07:07.606Z,2.10
2018-07-20T02:09:36.462Z,1.53
2018-07-20T02:12:05.319Z,1.77
2018-07-20T02:14:34.196Z,1.60
2018-07-20T02:17:02.791Z,1.70
2018-07-20T02:19:31.527Z,1.60
2018-07-20T02:22:00.356Z,1.83
2018-07-20T02:24:29.191Z,1.93
2018-07-20T02:26:58.014Z,1.97
2018-07-20T02:29:26.850Z,1.50
2018-07-20T02:31:55.649Z,1.60
2018-07-20T02:34:24.456Z,1.80
2018-07-20T02:36:53.343Z,2.17
2018-07-20T02:39:22.173Z,1.73
2018-07-20T02:41:51.008Z,1.90
2018-07-20T02:44:20.273Z,2.10
2018-07-20T02:46:49.143Z,1.97
2018-07-20T02:49:17.992Z,2.00
2018-07-20T02:51:46.820Z,1.80
2018-07-20T02:54:15.639Z,1.70
2018-07-20T02:56:44.465Z,2.00
2018-07-20T02:59:13.306Z,2.17
2018-07-20T03:01:42.101Z,1.97
2018-07-20T03:04:10.948Z,1.70
2018-07-20T03:06:39.759Z,2.10
2018-07-20T03:09:10.063Z,1.73
2018-07-20T03:11:38.851Z,1.80
2018-07-20T03:14:07.777Z,2.03
2018-07-20T03:16:37.042Z,1.93
2018-07-20T03:19:06.003Z,2.00
2018-07-20T03:21:34.845Z,1.93
2018-07-20T03:24:03.709Z,2.20
2018-07-20T03:26:32.548Z,1.50
2018-07-20T03:29:01.396Z,1.93
2018-07-20T03:31:30.248Z,2.13
2018-07-20T03:33:59.115Z,1.80
2018-07-20T03:36:27.932Z,1.90
2018-07-20T03:38:56.762Z,1.70
2018-07-20T03:41:25.851Z,2.40
2018-07-20T03:43:54.710Z,2.10
2018-07-20T03:46:23.512Z,2.07
2018-07-20T03:48:52.356Z,2.37
2018-07-20T03:51:21.117Z,2.17
2018-07-20T03:53:49.945Z,2.10
2018-07-20T03:56:18.801Z,1.97
2018-07-20T03:58:47.644Z,1.70
2018-07-20T04:01:16.466Z,2.20
2018-07-20T04:03:45.280Z,2.07
2018-07-20T04:06:14.103Z,2.13
2018-07-20T04:08:42.940Z,2.00
2018-07-20T04:11:11.793Z,1.70
2018-07-20T04:13:40.608Z,2.10
2018-07-20T04:16:09.478Z,1.47
2018-07-20T04:18:38.287Z,2.20
2018-07-20T04:21:07.206Z,1.70
2018-07-20T04:23:36.599Z,1.93
2018-07-20T04:26:05.730Z,1.70
2018-07-20T04:28:34.587Z,2.10
2018-07-20T04:31:03.414Z,1.30
2018-07-20T04:33:32.349Z,1.73
2018-07-20T04:36:01.141Z,1.60
2018-07-20T04:38:29.968Z,1.43
2018-07-20T04:40:58.788Z,2.17
2018-07-20T04:43:27.614Z,1.50
2018-07-20T04:45:56.455Z,1.50
2018-07-20T04:48:25.283Z,1.47
2018-07-20T04:50:54.105Z,1.57
2018-07-20T04:53:37.620Z,1.40
2018-07-20T04:56:06.436Z,1.60
2018-07-20T04:58:35.297Z,1.70
2018-07-20T05:01:04.131Z,1.73
2018-07-20T05:03:32.983Z,2.00
2018-07-20T05:06:01.951Z,2.50
2018-07-20T05:08:31.100Z,1.90
2018-07-20T05:11:00.163Z,1.93
2018-07-20T05:13:29.091Z,1.60
2018-07-20T05:15:58.200Z,2.17
2018-07-20T05:18:27.243Z,1.50
2018-07-20T05:20:56.465Z,2.00
2018-07-20T05:23:25.506Z,1.30
2018-07-20T05:25:54.356Z,1.73
2018-07-20T05:28:23.668Z,2.37
2018-07-20T05:30:52.484Z,1.80
2018-07-20T05:33:21.292Z,1.70
2018-07-20T05:35:50.216Z,1.40
2018-07-20T05:38:19.064Z,1.73
2018-07-20T05:40:47.927Z,2.00
2018-07-20T05:43:16.963Z,1.77
2018-07-20T05:45:46.063Z,1.70
2018-07-20T05:48:15.126Z,1.70
2018-07-20T05:50:43.998Z,2.40
2018-07-20T05:53:13.465Z,2.73
2018-07-20T05:55:42.990Z,1.97
2018-07-20T05:58:12.653Z,2.15
2018-07-20T06:00:41.474Z,1.80
2018-07-20T06:03:10.339Z,1.90
2018-07-20T06:05:39.342Z,1.70
2018-07-20T06:08:08.772Z,1.90
2018-07-20T06:10:38.045Z,2.77
2018-07-20T06:13:06.917Z,1.80
2018-07-20T06:15:35.784Z,1.60
2018-07-20T06:18:07.770Z,1.80
2018-07-20T06:20:36.657Z,1.98
2018-07-20T06:23:05.539Z,1.90
2018-07-20T06:25:34.271Z,2.00
2018-07-20T06:28:03.108Z,1.67
2018-07-20T06:30:31.940Z,1.73
2018-07-20T06:33:00.807Z,1.70
2018-07-20T06:35:29.673Z,1.40
2018-07-20T06:37:58.540Z,1.50
2018-07-20T06:40:27.583Z,1.63
2018-07-20T06:42:56.483Z,1.43
2018-07-20T06:45:25.917Z,1.87
2018-07-20T06:47:55.108Z,1.50
2018-07-20T06:50:23.992Z,1.40
2018-07-20T06:52:52.862Z,1.53
2018-07-20T06:55:21.693Z,1.75
2018-07-20T06:57:50.549Z,2.20
2018-07-20T07:00:19.398Z,1.67
2018-07-20T07:02:48.218Z,1.50
2018-07-20T07:05:17.135Z,1.80
2018-07-20T07:07:45.961Z,1.47
2018-07-20T07:10:14.861Z,1.50
2018-07-20T07:12:43.665Z,1.40
2018-07-20T07:15:12.530Z,1.60
2018-07-20T07:17:41.505Z,1.47
2018-07-20T07:20:10.320Z,1.30
2018-07-20T07:22:39.179Z,1.50
2018-07-20T07:25:08.057Z,1.63
2018-07-20T07:27:36.887Z,1.37
2018-07-20T07:30:05.741Z,1.70
2018-07-20T07:32:34.563Z,1.40
2018-07-20T07:35:04.449Z,1.40
2018-07-20T07:37:33.316Z,1.87
2018-07-20T07:40:02.191Z,1.93
2018-07-20T07:42:31.112Z,1.77
2018-07-20T07:45:00.020Z,1.40
2018-07-20T07:47:28.966Z,1.40
2018-07-20T07:49:58.188Z,1.70
2018-07-20T07:52:27.300Z,1.50
2018-07-20T07:54:56.215Z,1.40
2018-07-20T07:57:24.985Z,1.40
2018-07-20T07:59:54.256Z,1.70
2018-07-20T08:02:23.119Z,1.67
2018-07-20T08:04:52.169Z,1.50
2018-07-20T08:07:21.034Z,1.55
2018-07-20T08:09:49.893Z,1.30
2018-07-20T08:12:18.682Z,1.77
2018-07-20T08:14:47.545Z,1.73
2018-07-20T08:17:16.432Z,1.70
2018-07-20T08:19:45.821Z,1.60
2018-07-20T08:22:14.679Z,1.63
2018-07-20T08:24:43.529Z,2.00
2018-07-20T08:27:12.323Z,2.00
2018-07-20T08:29:41.170Z,1.90
2018-07-20T08:32:09.997Z,1.70
2018-07-20T08:34:38.926Z,2.10
2018-07-20T08:37:07.810Z,1.90
2018-07-20T08:39:36.442Z,2.00
2018-07-20T08:42:05.268Z,2.27
2018-07-20T08:44:34.069Z,2.13
2018-07-20T08:47:02.914Z,2.23
2018-07-20T08:49:32.670Z,1.90
2018-07-20T08:52:01.507Z,2.57
2018-07-20T08:54:30.341Z,1.57
2018-07-20T08:56:59.209Z,1.70
2018-07-20T08:59:28.075Z,2.37
2018-07-20T09:01:56.913Z,1.90
2018-07-20T09:04:25.755Z,2.30
2018-07-20T09:06:54.574Z,1.93
2018-07-20T09:09:23.441Z,2.37
2018-07-20T09:11:53.278Z,2.10
2018-07-20T09:14:22.403Z,1.90
2018-07-20T09:16:51.268Z,2.20
2018-07-20T09:19:20.109Z,2.70
2018-07-20T09:21:48.947Z,2.57
2018-07-20T09:24:17.757Z,2.03
2018-07-20T09:26:46.608Z,1.80
2018-07-20T09:29:15.463Z,2.00
2018-07-20T09:31:44.292Z,2.67
2018-07-20T09:34:13.179Z,2.43
2018-07-20T09:36:41.963Z,2.20
2018-07-20T09:39:11.758Z,1.90
2018-07-20T09:41:40.954Z,2.40
2018-07-20T09:44:09.793Z,1.80
2018-07-20T09:46:38.631Z,2.37
2018-07-20T09:49:07.428Z,1.90
2018-07-20T09:51:36.273Z,2.00
2018-07-20T09:54:05.085Z,2.17
2018-07-20T09:56:33.899Z,1.50
2018-07-20T09:59:02.762Z,2.77
2018-07-20T10:01:31.807Z,2.47
2018-07-20T10:04:00.649Z,1.50
2018-07-20T10:06:29.516Z,2.17
2018-07-20T10:08:58.407Z,1.70
2018-07-20T10:11:27.886Z,3.00
2018-07-20T10:13:56.814Z,2.10
2018-07-20T10:16:25.645Z,2.03
2018-07-20T10:18:54.520Z,2.80
2018-07-20T10:21:23.472Z,2.50
2018-07-20T10:23:52.318Z,1.70
2018-07-20T10:26:21.327Z,2.20
2018-07-20T10:28:50.180Z,2.00
2018-07-20T10:31:19.279Z,1.90
2018-07-20T10:33:48.272Z,1.80
2018-07-20T10:36:17.113Z,2.20
2018-07-20T10:38:45.933Z,3.47
2018-07-20T10:41:14.770Z,2.23
2018-07-20T10:43:43.600Z,2.00
2018-07-20T10:46:12.489Z,2.27
2018-07-20T10:48:41.370Z,2.63
2018-07-20T10:51:10.195Z,2.00
2018-07-20T10:53:39.039Z,1.80
2018-07-20T10:56:07.892Z,1.93
2018-07-20T10:58:36.769Z,2.63
2018-07-20T11:01:05.609Z,3.20
2018-07-20T11:03:34.507Z,2.27
2018-07-20T11:06:03.545Z,1.90
2018-07-20T11:08:32.489Z,1.93
2018-07-20T11:11:01.376Z,2.10
2018-07-20T11:13:30.269Z,3.27
2018-07-20T11:15:59.099Z,2.57
2018-07-20T11:18:27.951Z,2.70
2018-07-20T11:20:56.789Z,2.10
2018-07-20T11:23:25.664Z,2.40
2018-07-20T11:26:01.104Z,2.50
2018-07-20T11:28:29.926Z,3.23
2018-07-20T11:30:58.760Z,2.70
2018-07-20T11:33:27.576Z,2.03
2018-07-20T11:35:56.473Z,2.57
2018-07-20T11:38:25.381Z,2.17
2018-07-20T11:40:54.230Z,1.97
2018-07-20T11:43:23.485Z,3.53
2018-07-20T11:45:53.162Z,2.20
2018-07-20T11:48:22.091Z,2.17
2018-07-20T11:50:51.027Z,2.20
2018-07-20T11:53:19.855Z,2.23
2018-07-20T11:55:48.717Z,2.70
2018-07-20T11:58:17.574Z,2.90
2018-07-20T12:00:46.411Z,3.40
2018-07-20T12:03:15.414Z,2.00
2018-07-20T12:05:44.619Z,3.57
2018-07-20T12:08:13.610Z,3.58
2018-07-20T12:10:42.454Z,2.30
2018-07-20T12:13:11.594Z,2.30
2018-07-20T12:15:41.062Z,3.07
2018-07-20T12:18:10.397Z,2.85
2018-07-20T12:20:39.020Z,3.00
2018-07-20T12:23:07.822Z,3.20
2018-07-20T12:25:36.627Z,3.47
2018-07-20T12:28:05.536Z,3.27
2018-07-20T12:30:34.391Z,2.90
2018-07-20T12:33:03.216Z,4.03
2018-07-20T12:35:32.046Z,2.93
2018-07-20T12:38:00.893Z,3.00
2018-07-20T12:40:29.689Z,3.00
2018-07-20T12:42:58.601Z,2.90
2018-07-20T12:45:27.590Z,2.70
2018-07-20T12:47:57.269Z,3.27
2018-07-20T12:50:26.224Z,3.27
2018-07-20T12:52:55.362Z,2.53
2018-07-20T12:55:24.288Z,2.60
2018-07-20T12:57:53.261Z,3.43
2018-07-20T13:00:22.138Z,2.72
2018-07-20T13:02:50.999Z,3.30
2018-07-20T13:05:20.139Z,2.33
2018-07-20T13:07:50.169Z,2.80
2018-07-20T13:10:19.480Z,2.77
2018-07-20T13:12:48.316Z,2.83
2018-07-20T13:15:17.211Z,2.55
2018-07-20T13:17:46.057Z,2.77
2018-07-20T13:20:16.778Z,3.47
2018-07-20T13:22:45.627Z,3.53
2018-07-20T13:25:14.484Z,4.00
2018-07-20T13:27:43.311Z,2.63
2018-07-20T13:30:12.197Z,2.23
2018-07-20T13:32:41.089Z,2.53
2018-07-20T13:35:09.938Z,2.30
2018-07-20T13:37:38.775Z,2.27
2018-07-20T13:40:08.423Z,2.23
2018-07-20T13:42:37.285Z,2.50
2018-07-20T13:45:07.458Z,2.87
2018-07-20T13:47:36.342Z,3.00
2018-07-20T13:50:05.694Z,2.43
2018-07-20T13:52:34.634Z,2.33
2018-07-20T13:55:04.647Z,2.50
2018-07-20T13:57:33.597Z,3.10
2018-07-20T14:00:02.463Z,2.40
2018-07-20T14:02:31.352Z,2.60
2018-07-20T14:05:00.189Z,2.50
2018-07-20T14:07:29.035Z,2.63
2018-07-20T14:09:57.932Z,2.43
2018-07-20T14:12:27.301Z,2.80
2018-07-20T14:14:56.192Z,2.40
2018-07-20T14:17:25.026Z,2.40
2018-07-20T14:19:53.994Z,2.93
2018-07-20T14:22:22.837Z,2.50
2018-07-20T14:24:51.681Z,2.53
2018-07-20T14:27:20.557Z,2.60
2018-07-20T14:29:49.392Z,3.00
2018-07-20T14:32:18.247Z,2.30
2018-07-20T14:34:47.045Z,3.00
2018-07-20T14:37:15.929Z,2.50
2018-07-20T14:39:45.077Z,3.03
2018-07-20T14:42:13.947Z,3.50
2018-07-20T14:44:43.509Z,2.70
2018-07-20T14:47:12.344Z,4.77
2018-07-20T14:49:41.231Z,2.70
2018-07-20T14:52:10.130Z,2.80
2018-07-20T14:54:38.983Z,2.63
2018-07-20T14:57:07.855Z,2.80
2018-07-20T14:59:36.748Z,2.60
2018-07-20T15:02:05.652Z,3.30
2018-07-20T15:04:34.520Z,3.17
2018-07-20T15:07:03.332Z,3.77
2018-07-20T15:09:32.760Z,2.90
2018-07-20T15:12:01.559Z,3.50
2018-07-20T15:14:30.384Z,3.07
2018-07-20T15:16:59.250Z,3.20
2018-07-20T15:19:28.141Z,2.93
2018-07-20T15:21:57.418Z,3.63
2018-07-20T15:24:27.018Z,3.80
2018-07-20T15:26:55.793Z,3.33
2018-07-20T15:29:24.625Z,3.27
2018-07-20T15:31:53.467Z,3.40
2018-07-20T15:34:22.317Z,3.07
2018-07-20T15:36:51.213Z,2.60
2018-07-20T15:39:20.031Z,3.20
2018-07-20T15:41:48.851Z,2.80
2018-07-20T15:44:17.689Z,2.60
2018-07-20T15:46:46.777Z,2.70
2018-07-20T15:49:15.372Z,3.08
2018-07-20T15:54:13.126Z,2.63
2018-07-20T15:56:41.967Z,3.67
2018-07-20T15:59:12.072Z,2.60
2018-07-20T16:01:40.898Z,2.77
2018-07-20T16:04:09.797Z,3.47
2018-07-20T16:06:38.896Z,2.83
2018-07-20T16:09:09.523Z,2.60
2018-07-20T16:11:38.390Z,2.90
2018-07-20T16:14:07.249Z,2.73
2018-07-20T16:16:36.200Z,2.80
2018-07-20T16:19:05.235Z,3.03
2018-07-20T16:21:34.081Z,2.63
2018-07-20T16:24:03.182Z,3.00
2018-07-20T16:26:32.041Z,3.30
2018-07-20T16:29:00.876Z,2.80
2018-07-20T16:31:29.701Z,2.77
2018-07-20T16:33:58.583Z,2.77
2018-07-20T16:36:27.445Z,3.03
2018-07-20T16:38:56.302Z,2.80
2018-07-20T16:41:25.163Z,2.80
2018-07-20T16:43:53.979Z,3.00
2018-07-20T16:46:22.820Z,2.80
2018-07-20T16:48:51.668Z,3.30
2018-07-20T16:51:20.546Z,2.80
2018-07-20T16:53:49.381Z,2.93
2018-07-20T16:56:18.476Z,3.30
2018-07-20T16:58:47.332Z,2.67
2018-07-20T17:01:16.160Z,2.80
2018-07-20T17:03:45.013Z,2.67
2018-07-20T17:06:13.820Z,3.43
2018-07-20T17:08:42.852Z,2.67
2018-07-20T17:11:11.654Z,2.85
2018-07-20T17:13:40.512Z,2.83
2018-07-20T17:16:09.359Z,2.98
2018-07-20T17:18:38.252Z,2.87
2018-07-20T17:21:07.147Z,2.97
2018-07-20T17:23:35.978Z,4.03
2018-07-20T17:26:04.843Z,3.00
2018-07-20T17:28:33.684Z,2.53
2018-07-20T17:31:02.489Z,2.57
2018-07-20T17:33:31.415Z,3.07
2018-07-20T17:36:00.311Z,3.37
2018-07-20T17:38:29.174Z,3.10
2018-07-20T17:40:58.037Z,3.20
2018-07-20T17:43:26.960Z,3.10
2018-07-20T17:45:55.862Z,2.70
2018-07-20T17:48:24.735Z,3.30
2018-07-20T17:50:53.644Z,3.00
2018-07-20T17:53:22.533Z,3.10
2018-07-20T17:55:51.796Z,3.10
2018-07-20T17:58:20.685Z,2.60
2018-07-20T18:00:49.692Z,3.10
2018-07-20T18:03:18.584Z,2.93
2018-07-20T18:05:48.414Z,2.90
2018-07-20T18:08:17.307Z,2.90
2018-07-20T18:10:46.203Z,2.73
2018-07-20T18:13:15.301Z,2.70
2018-07-20T18:15:44.198Z,2.40
2018-07-20T18:18:13.117Z,2.33
2018-07-20T18:20:42.045Z,2.63
2018-07-20T18:23:10.907Z,2.30
2018-07-20T18:25:39.717Z,3.07
2018-07-20T18:28:08.655Z,2.60
2018-07-20T18:30:37.513Z,2.80
2018-07-20T18:33:06.407Z,2.37
2018-07-20T18:35:35.326Z,2.03
2018-07-20T18:38:04.687Z,1.90
2018-07-20T18:40:33.635Z,2.27
2018-07-20T18:43:02.505Z,2.10
2018-07-20T18:45:31.408Z,1.80
2018-07-20T18:48:00.309Z,2.17
2018-07-20T18:50:29.267Z,1.80
2018-07-20T18:52:58.128Z,2.13
2018-07-20T18:55:26.957Z,1.80
2018-07-20T18:57:55.849Z,2.03
2018-07-20T19:00:24.758Z,1.67
2018-07-20T19:02:54.349Z,1.90
2018-07-20T19:05:23.812Z,1.97
2018-07-20T19:07:52.792Z,1.90
2018-07-20T19:10:22.347Z,1.73
2018-07-20T19:12:51.219Z,17.93
2018-07-20T19:15:20.130Z,19.50
2018-07-20T19:17:48.999Z,26.73
2018-07-20T19:20:17.859Z,6.70
2018-07-20T19:22:46.839Z,23.53
2018-07-20T19:25:15.678Z,20.52
2018-07-20T19:27:44.612Z,3.13
2018-07-20T19:30:13.475Z,6.10
2018-07-20T19:32:42.429Z,2.80
2018-07-20T19:35:11.260Z,9.23
2018-07-20T19:37:40.255Z,9.27
2018-07-20T19:40:09.149Z,2.80
2018-07-20T19:42:38.070Z,3.23
2018-07-20T19:45:07.858Z,2.47
2018-07-20T19:47:36.768Z,4.83
2018-07-20T19:50:05.782Z,4.77
2018-07-20T19:52:35.034Z,4.57
2018-07-20T19:55:03.890Z,3.40
2018-07-20T19:57:32.877Z,2.70
2018-07-20T20:00:01.734Z,2.03
2018-07-20T20:02:30.589Z,3.13
2018-07-20T20:04:59.487Z,3.70
2018-07-20T20:07:28.321Z,3.33
2018-07-20T20:09:57.222Z,3.00
2018-07-20T20:12:26.113Z,3.13
2018-07-20T20:14:54.947Z,2.97
2018-07-20T20:17:23.806Z,2.50
2018-07-20T20:19:52.616Z,2.03
2018-07-20T20:22:21.464Z,2.40
2018-07-20T20:24:50.429Z,1.43
2018-07-20T20:27:19.365Z,1.80
2018-07-20T20:29:48.256Z,2.00
2018-07-20T20:32:17.159Z,1.50
2018-07-20T20:34:46.009Z,1.73
2018-07-20T20:37:14.837Z,1.97
2018-07-20T20:39:43.675Z,1.77
2018-07-20T20:42:12.519Z,1.70
2018-07-20T20:44:41.357Z,1.60
2018-07-20T20:47:10.270Z,1.70
2018-07-20T20:49:39.114Z,2.13
2018-07-20T20:52:07.988Z,1.97
2018-07-20T20:54:36.812Z,2.20
2018-07-20T20:57:05.665Z,2.07
2018-07-20T20:59:34.521Z,1.80
2018-07-20T21:02:04.546Z,1.83
2018-07-20T21:04:35.402Z,1.73
2018-07-20T21:07:05.000Z,1.72
2018-07-20T21:09:33.956Z,1.97
2018-07-20T21:12:02.968Z,1.40
2018-07-20T21:14:31.653Z,1.83
2018-07-20T21:17:00.490Z,1.73
2018-07-20T21:19:29.369Z,1.60
2018-07-20T21:21:58.183Z,1.80
2018-07-20T21:24:27.719Z,2.10
2018-07-20T21:26:56.560Z,1.60
2018-07-20T21:29:25.410Z,1.67
2018-07-20T21:31:54.241Z,2.77
2018-07-20T21:34:23.118Z,1.65
2018-07-20T21:36:51.933Z,1.70
2018-07-20T21:39:20.810Z,1.60
2018-07-20T21:41:49.655Z,1.60
2018-07-20T21:44:18.424Z,1.43
2018-07-20T21:46:47.201Z,1.63
2018-07-20T21:49:16.052Z,2.10
2018-07-20T21:51:44.869Z,1.40
2018-07-20T21:54:13.707Z,1.60
2018-07-20T21:56:42.211Z,1.43
2018-07-20T21:59:10.700Z,1.57
2018-07-20T22:01:39.204Z,2.17
2018-07-20T22:04:07.711Z,1.30
2018-07-20T22:06:36.214Z,1.50
2018-07-20T22:09:06.505Z,1.43
2018-07-20T22:11:34.999Z,1.63
2018-07-20T22:14:04.228Z,2.20
2018-07-20T22:16:32.735Z,1.83
2018-07-20T22:19:01.250Z,1.90
2018-07-20T22:21:29.833Z,1.73
2018-07-20T22:23:58.300Z,1.30
2018-07-20T22:26:26.867Z,1.33
2018-07-20T22:28:55.373Z,1.40
2018-07-20T22:31:23.903Z,1.87
2018-07-20T22:33:52.434Z,1.70
2018-07-20T22:36:20.965Z,1.30
2018-07-20T22:38:49.459Z,1.77
2018-07-20T22:41:17.994Z,1.80
2018-07-20T22:43:46.496Z,1.40
2018-07-20T22:46:15.031Z,1.43
2018-07-20T22:48:43.522Z,1.70
2018-07-20T22:51:12.066Z,1.90
2018-07-20T22:53:40.780Z,1.70
2018-07-20T22:56:09.290Z,1.27
2018-07-20T22:58:37.827Z,1.50
2018-07-20T23:01:06.320Z,1.77
2018-07-20T23:03:34.927Z,1.60
2018-07-20T23:06:04.183Z,1.70
2018-07-20T23:08:32.715Z,1.70
2018-07-20T23:11:01.195Z,1.43
2018-07-20T23:13:29.646Z,1.93
2018-07-20T23:15:58.218Z,1.40
2018-07-20T23:18:26.746Z,1.80
2018-07-20T23:20:55.280Z,1.40
2018-07-20T23:23:23.758Z,1.63
2018-07-20T23:25:52.270Z,1.60
2018-07-20T23:28:20.735Z,1.50
2018-07-20T23:30:49.256Z,1.70
2018-07-20T23:33:17.749Z,2.33
2018-07-20T23:35:46.262Z,1.90
2018-07-20T23:38:14.748Z,2.23
2018-07-20T23:40:43.263Z,2.43
2018-07-20T23:43:11.772Z,2.30
2018-07-20T23:45:40.305Z,1.60
2018-07-20T23:48:08.851Z,2.00
2018-07-20T23:50:38.402Z,1.60
2018-07-20T23:53:06.880Z,1.70
2018-07-20T23:55:35.388Z,1.60
2018-07-20T23:58:04.106Z,1.80
